sensor_id;sensor_type;location;lat;lon;timestamp;P1;durP1;ratioP1;P2;durP2;ratioP2
42294;SDS011;27947;47.556;18.718;2024-03-02T00:01:14;38.28;;;19.67;;
42294;SDS011;27947;47.556;18.718;2024-03-02T00:03:40;30.48;;;18.58;;
42294;SDS011;27947;47.556;18.718;2024-03-02T00:06:07;34.67;;;18.73;;
42294;SDS011;27947;47.556;18.718;2024-03-02T00:08:33;31.95;;;19.00;;
42294;SDS011;27947;47.556;18.718;2024-03-02T00:10:58;30.52;;;19.98;;
42294;SDS011;27947;47.556;18.718;2024-03-02T00:13:24;32.67;;;19.38;;
42294;SDS011;27947;47.556;18.718;2024-03-02T00:15:53;33.17;;;19.10;;
42294;SDS011;27947;47.556;18.718;2024-03-02T00:18:19;33.58;;;19.33;;
42294;SDS011;27947;47.556;18.718;2024-03-02T00:20:45;29.67;;;18.50;;
42294;SDS011;27947;47.556;18.718;2024-03-02T00:23:12;30.92;;;18.92;;
42294;SDS011;27947;47.556;18.718;2024-03-02T00:28:50;37.90;;;19.63;;
42294;SDS011;27947;47.556;18.718;2024-03-02T00:31:08;33.33;;;20.35;;
42294;SDS011;27947;47.556;18.718;2024-03-02T00:36:05;32.25;;;19.77;;
42294;SDS011;27947;47.556;18.718;2024-03-02T00:38:31;40.90;;;20.67;;
42294;SDS011;27947;47.556;18.718;2024-03-02T00:41:00;36.70;;;20.38;;
42294;SDS011;27947;47.556;18.718;2024-03-02T00:45:54;31.90;;;19.50;;
42294;SDS011;27947;47.556;18.718;2024-03-02T00:48:19;36.58;;;20.83;;
42294;SDS011;27947;47.556;18.718;2024-03-02T00:50:44;36.92;;;20.13;;
42294;SDS011;27947;47.556;18.718;2024-03-02T00:53:10;33.03;;;18.83;;
42294;SDS011;27947;47.556;18.718;2024-03-02T00:55:36;33.78;;;19.73;;
42294;SDS011;27947;47.556;18.718;2024-03-02T00:58:02;32.47;;;18.73;;
42294;SDS011;27947;47.556;18.718;2024-03-02T01:00:27;34.92;;;19.75;;
42294;SDS011;27947;47.556;18.718;2024-03-02T01:02:52;35.10;;;19.98;;
42294;SDS011;27947;47.556;18.718;2024-03-02T01:05:18;30.77;;;19.05;;
42294;SDS011;27947;47.556;18.718;2024-03-02T01:07:43;35.30;;;19.30;;
42294;SDS011;27947;47.556;18.718;2024-03-02T01:10:08;33.65;;;19.70;;
42294;SDS011;27947;47.556;18.718;2024-03-02T01:12:35;32.90;;;19.33;;
42294;SDS011;27947;47.556;18.718;2024-03-02T01:15:00;36.33;;;19.15;;
42294;SDS011;27947;47.556;18.718;2024-03-02T01:17:25;33.17;;;19.85;;
42294;SDS011;27947;47.556;18.718;2024-03-02T01:19:50;31.70;;;19.10;;
42294;SDS011;27947;47.556;18.718;2024-03-02T01:22:16;35.13;;;20.38;;
42294;SDS011;27947;47.556;18.718;2024-03-02T01:24:41;30.45;;;19.75;;
42294;SDS011;27947;47.556;18.718;2024-03-02T01:27:07;35.50;;;18.92;;
42294;SDS011;27947;47.556;18.718;2024-03-02T01:29:32;32.70;;;19.83;;
42294;SDS011;27947;47.556;18.718;2024-03-02T01:31:58;34.67;;;20.15;;
42294;SDS011;27947;47.556;18.718;2024-03-02T01:34:23;32.42;;;19.42;;
42294;SDS011;27947;47.556;18.718;2024-03-02T01:36:48;31.13;;;20.15;;
42294;SDS011;27947;47.556;18.718;2024-03-02T01:39:13;31.80;;;19.85;;
42294;SDS011;27947;47.556;18.718;2024-03-02T01:41:39;33.05;;;19.13;;
42294;SDS011;27947;47.556;18.718;2024-03-02T01:44:04;34.88;;;20.83;;
42294;SDS011;27947;47.556;18.718;2024-03-02T01:46:29;37.13;;;19.97;;
42294;SDS011;27947;47.556;18.718;2024-03-02T01:48:54;39.78;;;20.23;;
42294;SDS011;27947;47.556;18.718;2024-03-02T01:51:20;38.55;;;20.70;;
42294;SDS011;27947;47.556;18.718;2024-03-02T01:53:45;34.25;;;20.35;;
42294;SDS011;27947;47.556;18.718;2024-03-02T01:56:10;37.13;;;20.08;;
42294;SDS011;27947;47.556;18.718;2024-03-02T01:58:36;35.38;;;20.38;;
42294;SDS011;27947;47.556;18.718;2024-03-02T02:01:01;37.63;;;20.60;;
42294;SDS011;27947;47.556;18.718;2024-03-02T02:03:27;36.15;;;20.58;;
42294;SDS011;27947;47.556;18.718;2024-03-02T02:05:52;38.97;;;21.02;;
42294;SDS011;27947;47.556;18.718;2024-03-02T02:08:17;36.25;;;19.73;;
42294;SDS011;27947;47.556;18.718;2024-03-02T02:10:43;36.47;;;20.92;;
42294;SDS011;27947;47.556;18.718;2024-03-02T02:13:08;36.00;;;21.33;;
42294;SDS011;27947;47.556;18.718;2024-03-02T02:15:33;35.55;;;21.42;;
42294;SDS011;27947;47.556;18.718;2024-03-02T02:18:01;34.53;;;19.90;;
42294;SDS011;27947;47.556;18.718;2024-03-02T02:20:26;31.70;;;20.17;;
42294;SDS011;27947;47.556;18.718;2024-03-02T02:22:53;38.83;;;21.10;;
42294;SDS011;27947;47.556;18.718;2024-03-02T02:25:19;40.38;;;21.50;;
42294;SDS011;27947;47.556;18.718;2024-03-02T02:27:44;35.30;;;20.80;;
42294;SDS011;27947;47.556;18.718;2024-03-02T02:30:09;37.65;;;22.67;;
42294;SDS011;27947;47.556;18.718;2024-03-02T02:32:35;38.22;;;21.67;;
42294;SDS011;27947;47.556;18.718;2024-03-02T02:35:00;35.88;;;20.67;;
42294;SDS011;27947;47.556;18.718;2024-03-02T02:37:25;35.15;;;22.23;;
42294;SDS011;27947;47.556;18.718;2024-03-02T02:39:51;36.97;;;21.58;;
42294;SDS011;27947;47.556;18.718;2024-03-02T02:42:16;32.83;;;20.48;;
42294;SDS011;27947;47.556;18.718;2024-03-02T02:44:41;40.40;;;21.67;;
42294;SDS011;27947;47.556;18.718;2024-03-02T02:47:06;38.53;;;22.35;;
42294;SDS011;27947;47.556;18.718;2024-03-02T02:49:32;32.15;;;20.98;;
42294;SDS011;27947;47.556;18.718;2024-03-02T02:51:57;32.17;;;20.27;;
42294;SDS011;27947;47.556;18.718;2024-03-02T02:54:22;36.25;;;20.55;;
42294;SDS011;27947;47.556;18.718;2024-03-02T02:56:48;36.10;;;21.25;;
42294;SDS011;27947;47.556;18.718;2024-03-02T02:59:13;35.70;;;20.67;;
42294;SDS011;27947;47.556;18.718;2024-03-02T03:01:38;40.15;;;23.10;;
42294;SDS011;27947;47.556;18.718;2024-03-02T03:04:03;37.67;;;20.95;;
42294;SDS011;27947;47.556;18.718;2024-03-02T03:06:29;33.42;;;20.10;;
42294;SDS011;27947;47.556;18.718;2024-03-02T03:08:54;35.03;;;21.48;;
42294;SDS011;27947;47.556;18.718;2024-03-02T03:11:19;35.50;;;21.17;;
42294;SDS011;27947;47.556;18.718;2024-03-02T03:13:45;37.78;;;21.98;;
42294;SDS011;27947;47.556;18.718;2024-03-02T03:16:10;35.35;;;21.00;;
42294;SDS011;27947;47.556;18.718;2024-03-02T03:18:35;37.28;;;21.08;;
42294;SDS011;27947;47.556;18.718;2024-03-02T03:21:00;33.92;;;21.35;;
42294;SDS011;27947;47.556;18.718;2024-03-02T03:23:25;34.05;;;21.70;;
42294;SDS011;27947;47.556;18.718;2024-03-02T03:25:51;32.25;;;20.05;;
42294;SDS011;27947;47.556;18.718;2024-03-02T03:28:16;31.10;;;20.15;;
42294;SDS011;27947;47.556;18.718;2024-03-02T03:30:41;36.08;;;22.15;;
42294;SDS011;27947;47.556;18.718;2024-03-02T03:33:07;35.72;;;20.23;;
42294;SDS011;27947;47.556;18.718;2024-03-02T03:35:32;35.40;;;20.48;;
42294;SDS011;27947;47.556;18.718;2024-03-02T03:37:57;35.25;;;20.50;;
42294;SDS011;27947;47.556;18.718;2024-03-02T03:40:23;34.72;;;20.70;;
42294;SDS011;27947;47.556;18.718;2024-03-02T03:42:48;34.17;;;20.95;;
42294;SDS011;27947;47.556;18.718;2024-03-02T03:45:15;34.95;;;20.67;;
42294;SDS011;27947;47.556;18.718;2024-03-02T03:47:40;36.95;;;20.00;;
42294;SDS011;27947;47.556;18.718;2024-03-02T03:50:06;32.50;;;19.50;;
42294;SDS011;27947;47.556;18.718;2024-03-02T03:52:32;36.17;;;19.80;;
42294;SDS011;27947;47.556;18.718;2024-03-02T03:54:57;34.72;;;20.02;;
42294;SDS011;27947;47.556;18.718;2024-03-02T03:57:23;34.92;;;20.05;;
42294;SDS011;27947;47.556;18.718;2024-03-02T03:59:48;33.50;;;19.88;;
42294;SDS011;27947;47.556;18.718;2024-03-02T04:02:13;38.63;;;19.88;;
42294;SDS011;27947;47.556;18.718;2024-03-02T04:04:38;38.30;;;20.67;;
42294;SDS011;27947;47.556;18.718;2024-03-02T04:07:04;31.35;;;18.90;;
42294;SDS011;27947;47.556;18.718;2024-03-02T04:09:29;36.55;;;20.75;;
42294;SDS011;27947;47.556;18.718;2024-03-02T04:11:54;34.13;;;19.98;;
42294;SDS011;27947;47.556;18.718;2024-03-02T04:14:19;30.02;;;19.85;;
42294;SDS011;27947;47.556;18.718;2024-03-02T04:16:45;35.92;;;21.33;;
42294;SDS011;27947;47.556;18.718;2024-03-02T04:19:10;33.88;;;19.90;;
42294;SDS011;27947;47.556;18.718;2024-03-02T04:21:35;34.10;;;19.60;;
42294;SDS011;27947;47.556;18.718;2024-03-02T04:24:00;33.25;;;20.02;;
42294;SDS011;27947;47.556;18.718;2024-03-02T04:26:26;34.70;;;20.10;;
42294;SDS011;27947;47.556;18.718;2024-03-02T04:28:51;34.05;;;19.58;;
42294;SDS011;27947;47.556;18.718;2024-03-02T04:31:17;29.98;;;19.38;;
42294;SDS011;27947;47.556;18.718;2024-03-02T04:33:42;35.78;;;19.83;;
42294;SDS011;27947;47.556;18.718;2024-03-02T04:36:07;38.60;;;21.35;;
42294;SDS011;27947;47.556;18.718;2024-03-02T04:38:34;38.88;;;20.13;;
42294;SDS011;27947;47.556;18.718;2024-03-02T04:41:00;34.78;;;20.30;;
42294;SDS011;27947;47.556;18.718;2024-03-02T04:43:25;35.15;;;20.58;;
42294;SDS011;27947;47.556;18.718;2024-03-02T04:45:50;34.25;;;20.73;;
42294;SDS011;27947;47.556;18.718;2024-03-02T04:48:15;37.70;;;21.50;;
42294;SDS011;27947;47.556;18.718;2024-03-02T04:50:41;40.08;;;22.80;;
42294;SDS011;27947;47.556;18.718;2024-03-02T04:53:06;35.35;;;21.17;;
42294;SDS011;27947;47.556;18.718;2024-03-02T04:55:32;42.85;;;22.35;;
42294;SDS011;27947;47.556;18.718;2024-03-02T04:58:00;40.78;;;22.08;;
42294;SDS011;27947;47.556;18.718;2024-03-02T05:00:25;36.10;;;22.42;;
42294;SDS011;27947;47.556;18.718;2024-03-02T05:02:50;37.50;;;22.58;;
42294;SDS011;27947;47.556;18.718;2024-03-02T05:05:16;37.17;;;22.10;;
42294;SDS011;27947;47.556;18.718;2024-03-02T05:07:41;36.17;;;21.58;;
42294;SDS011;27947;47.556;18.718;2024-03-02T05:10:10;40.70;;;22.83;;
42294;SDS011;27947;47.556;18.718;2024-03-02T05:12:36;37.53;;;21.83;;
42294;SDS011;27947;47.556;18.718;2024-03-02T05:15:11;41.17;;;23.93;;
42294;SDS011;27947;47.556;18.718;2024-03-02T05:17:37;40.75;;;23.10;;
42294;SDS011;27947;47.556;18.718;2024-03-02T05:20:06;38.88;;;22.73;;
42294;SDS011;27947;47.556;18.718;2024-03-02T05:22:33;39.20;;;23.60;;
42294;SDS011;27947;47.556;18.718;2024-03-02T05:24:59;41.35;;;23.38;;
42294;SDS011;27947;47.556;18.718;2024-03-02T05:27:24;38.55;;;23.92;;
42294;SDS011;27947;47.556;18.718;2024-03-02T05:29:50;39.83;;;23.95;;
42294;SDS011;27947;47.556;18.718;2024-03-02T05:32:15;40.28;;;23.33;;
42294;SDS011;27947;47.556;18.718;2024-03-02T05:34:40;39.70;;;23.35;;
42294;SDS011;27947;47.556;18.718;2024-03-02T05:37:06;40.97;;;24.33;;
42294;SDS011;27947;47.556;18.718;2024-03-02T05:39:31;38.63;;;24.30;;
42294;SDS011;27947;47.556;18.718;2024-03-02T05:41:56;39.22;;;24.00;;
42294;SDS011;27947;47.556;18.718;2024-03-02T05:44:21;42.25;;;24.23;;
42294;SDS011;27947;47.556;18.718;2024-03-02T05:46:47;43.90;;;24.40;;
42294;SDS011;27947;47.556;18.718;2024-03-02T05:49:12;38.65;;;23.58;;
42294;SDS011;27947;47.556;18.718;2024-03-02T05:51:38;37.97;;;23.15;;
42294;SDS011;27947;47.556;18.718;2024-03-02T05:54:03;42.90;;;23.85;;
42294;SDS011;27947;47.556;18.718;2024-03-02T05:56:28;40.70;;;25.80;;
42294;SDS011;27947;47.556;18.718;2024-03-02T05:58:54;44.33;;;25.17;;
42294;SDS011;27947;47.556;18.718;2024-03-02T06:01:48;43.88;;;24.38;;
42294;SDS011;27947;47.556;18.718;2024-03-02T06:04:16;42.42;;;25.48;;
42294;SDS011;27947;47.556;18.718;2024-03-02T06:06:42;44.17;;;24.48;;
42294;SDS011;27947;47.556;18.718;2024-03-02T06:09:07;42.35;;;24.00;;
42294;SDS011;27947;47.556;18.718;2024-03-02T06:11:36;41.35;;;24.38;;
42294;SDS011;27947;47.556;18.718;2024-03-02T06:14:01;47.42;;;24.67;;
42294;SDS011;27947;47.556;18.718;2024-03-02T06:16:27;41.33;;;24.85;;
42294;SDS011;27947;47.556;18.718;2024-03-02T06:18:52;42.63;;;25.25;;
42294;SDS011;27947;47.556;18.718;2024-03-02T06:21:19;41.72;;;24.08;;
42294;SDS011;27947;47.556;18.718;2024-03-02T06:23:44;40.88;;;25.40;;
42294;SDS011;27947;47.556;18.718;2024-03-02T06:26:09;39.85;;;24.48;;
42294;SDS011;27947;47.556;18.718;2024-03-02T06:28:35;41.83;;;24.45;;
42294;SDS011;27947;47.556;18.718;2024-03-02T06:31:01;42.42;;;25.42;;
42294;SDS011;27947;47.556;18.718;2024-03-02T06:33:27;41.03;;;24.98;;
42294;SDS011;27947;47.556;18.718;2024-03-02T06:35:52;42.30;;;24.75;;
42294;SDS011;27947;47.556;18.718;2024-03-02T06:38:17;46.05;;;26.42;;
42294;SDS011;27947;47.556;18.718;2024-03-02T06:40:42;43.80;;;25.15;;
42294;SDS011;27947;47.556;18.718;2024-03-02T06:43:08;42.78;;;24.95;;
42294;SDS011;27947;47.556;18.718;2024-03-02T06:45:33;41.17;;;24.85;;
42294;SDS011;27947;47.556;18.718;2024-03-02T06:47:59;41.78;;;24.75;;
42294;SDS011;27947;47.556;18.718;2024-03-02T06:50:24;39.15;;;24.80;;
42294;SDS011;27947;47.556;18.718;2024-03-02T06:52:50;42.95;;;25.23;;
42294;SDS011;27947;47.556;18.718;2024-03-02T06:55:15;45.65;;;25.48;;
42294;SDS011;27947;47.556;18.718;2024-03-02T06:57:40;44.72;;;24.67;;
42294;SDS011;27947;47.556;18.718;2024-03-02T07:00:06;39.92;;;24.65;;
42294;SDS011;27947;47.556;18.718;2024-03-02T07:02:34;44.50;;;25.85;;
42294;SDS011;27947;47.556;18.718;2024-03-02T07:04:59;46.17;;;25.98;;
42294;SDS011;27947;47.556;18.718;2024-03-02T07:07:24;42.72;;;25.77;;
42294;SDS011;27947;47.556;18.718;2024-03-02T07:09:50;44.50;;;27.67;;
42294;SDS011;27947;47.556;18.718;2024-03-02T07:12:15;39.55;;;24.98;;
42294;SDS011;27947;47.556;18.718;2024-03-02T07:14:40;42.97;;;26.95;;
42294;SDS011;27947;47.556;18.718;2024-03-02T07:17:24;47.92;;;27.33;;
42294;SDS011;27947;47.556;18.718;2024-03-02T07:19:50;44.95;;;25.90;;
42294;SDS011;27947;47.556;18.718;2024-03-02T07:22:16;58.72;;;26.60;;
42294;SDS011;27947;47.556;18.718;2024-03-02T07:24:44;40.40;;;25.23;;
42294;SDS011;27947;47.556;18.718;2024-03-02T07:27:11;39.90;;;25.13;;
42294;SDS011;27947;47.556;18.718;2024-03-02T07:29:37;46.15;;;27.02;;
42294;SDS011;27947;47.556;18.718;2024-03-02T07:32:02;45.38;;;25.48;;
42294;SDS011;27947;47.556;18.718;2024-03-02T07:34:28;48.38;;;27.25;;
42294;SDS011;27947;47.556;18.718;2024-03-02T07:36:53;45.72;;;25.98;;
42294;SDS011;27947;47.556;18.718;2024-03-02T07:39:18;45.95;;;25.05;;
42294;SDS011;27947;47.556;18.718;2024-03-02T07:41:44;45.75;;;28.25;;
42294;SDS011;27947;47.556;18.718;2024-03-02T07:44:10;43.90;;;25.70;;
42294;SDS011;27947;47.556;18.718;2024-03-02T07:46:39;43.88;;;26.83;;
42294;SDS011;27947;47.556;18.718;2024-03-02T07:49:04;48.88;;;25.83;;
42294;SDS011;27947;47.556;18.718;2024-03-02T07:51:30;51.70;;;26.05;;
42294;SDS011;27947;47.556;18.718;2024-03-02T07:53:55;49.17;;;25.90;;
42294;SDS011;27947;47.556;18.718;2024-03-02T07:56:20;44.33;;;25.10;;
42294;SDS011;27947;47.556;18.718;2024-03-02T07:58:48;41.53;;;25.23;;
42294;SDS011;27947;47.556;18.718;2024-03-02T08:01:14;43.70;;;25.27;;
42294;SDS011;27947;47.556;18.718;2024-03-02T08:03:39;42.90;;;26.25;;
42294;SDS011;27947;47.556;18.718;2024-03-02T08:06:04;42.63;;;25.92;;
42294;SDS011;27947;47.556;18.718;2024-03-02T08:08:30;45.03;;;27.23;;
42294;SDS011;27947;47.556;18.718;2024-03-02T08:10:55;44.40;;;26.98;;
42294;SDS011;27947;47.556;18.718;2024-03-02T08:13:20;43.83;;;27.00;;
42294;SDS011;27947;47.556;18.718;2024-03-02T08:15:45;42.83;;;25.50;;
42294;SDS011;27947;47.556;18.718;2024-03-02T08:18:11;42.40;;;25.60;;
42294;SDS011;27947;47.556;18.718;2024-03-02T08:20:37;41.88;;;26.10;;
42294;SDS011;27947;47.556;18.718;2024-03-02T08:23:02;42.25;;;26.35;;
42294;SDS011;27947;47.556;18.718;2024-03-02T08:25:27;41.30;;;26.52;;
42294;SDS011;27947;47.556;18.718;2024-03-02T08:27:52;51.92;;;33.15;;
42294;SDS011;27947;47.556;18.718;2024-03-02T08:30:18;118.75;;;30.30;;
42294;SDS011;27947;47.556;18.718;2024-03-02T08:32:43;39.05;;;25.52;;
42294;SDS011;27947;47.556;18.718;2024-03-02T08:35:10;39.05;;;26.00;;
42294;SDS011;27947;47.556;18.718;2024-03-02T08:37:36;41.08;;;25.38;;
42294;SDS011;27947;47.556;18.718;2024-03-02T08:40:02;37.83;;;24.67;;
42294;SDS011;27947;47.556;18.718;2024-03-02T08:42:29;41.45;;;25.00;;
42294;SDS011;27947;47.556;18.718;2024-03-02T08:44:54;41.58;;;25.67;;
42294;SDS011;27947;47.556;18.718;2024-03-02T08:47:19;37.30;;;24.15;;
42294;SDS011;27947;47.556;18.718;2024-03-02T08:49:44;37.13;;;24.10;;
42294;SDS011;27947;47.556;18.718;2024-03-02T08:52:10;38.38;;;25.45;;
42294;SDS011;27947;47.556;18.718;2024-03-02T08:54:35;42.67;;;25.13;;
42294;SDS011;27947;47.556;18.718;2024-03-02T08:57:00;41.10;;;25.50;;
42294;SDS011;27947;47.556;18.718;2024-03-02T08:59:26;43.30;;;27.08;;
42294;SDS011;27947;47.556;18.718;2024-03-02T09:01:52;41.05;;;25.88;;
42294;SDS011;27947;47.556;18.718;2024-03-02T09:04:18;43.67;;;26.60;;
42294;SDS011;27947;47.556;18.718;2024-03-02T09:06:43;43.03;;;25.52;;
42294;SDS011;27947;47.556;18.718;2024-03-02T09:09:08;40.78;;;26.02;;
42294;SDS011;27947;47.556;18.718;2024-03-02T09:11:33;48.22;;;27.13;;
42294;SDS011;27947;47.556;18.718;2024-03-02T09:13:59;45.55;;;28.10;;
42294;SDS011;27947;47.556;18.718;2024-03-02T09:16:24;44.38;;;27.42;;
42294;SDS011;27947;47.556;18.718;2024-03-02T09:18:55;40.08;;;25.90;;
42294;SDS011;27947;47.556;18.718;2024-03-02T09:21:20;46.08;;;26.90;;
42294;SDS011;27947;47.556;18.718;2024-03-02T09:23:46;40.97;;;24.88;;
42294;SDS011;27947;47.556;18.718;2024-03-02T09:26:13;41.28;;;23.83;;
42294;SDS011;27947;47.556;18.718;2024-03-02T09:28:42;38.95;;;23.23;;
42294;SDS011;27947;47.556;18.718;2024-03-02T09:31:09;38.28;;;23.85;;
42294;SDS011;27947;47.556;18.718;2024-03-02T09:33:34;35.00;;;22.83;;
42294;SDS011;27947;47.556;18.718;2024-03-02T09:35:59;39.25;;;23.13;;
42294;SDS011;27947;47.556;18.718;2024-03-02T09:38:25;37.92;;;22.92;;
42294;SDS011;27947;47.556;18.718;2024-03-02T09:40:50;34.00;;;22.83;;
42294;SDS011;27947;47.556;18.718;2024-03-02T09:43:16;36.78;;;23.25;;
42294;SDS011;27947;47.556;18.718;2024-03-02T09:45:41;36.28;;;23.10;;
42294;SDS011;27947;47.556;18.718;2024-03-02T09:48:07;39.50;;;22.30;;
42294;SDS011;27947;47.556;18.718;2024-03-02T09:50:32;36.88;;;23.38;;
42294;SDS011;27947;47.556;18.718;2024-03-02T09:52:58;35.13;;;22.23;;
42294;SDS011;27947;47.556;18.718;2024-03-02T09:55:23;28.38;;;19.23;;
42294;SDS011;27947;47.556;18.718;2024-03-02T09:57:50;36.63;;;20.80;;
42294;SDS011;27947;47.556;18.718;2024-03-02T10:00:15;28.67;;;20.05;;
42294;SDS011;27947;47.556;18.718;2024-03-02T10:02:41;29.92;;;19.77;;
42294;SDS011;27947;47.556;18.718;2024-03-02T10:05:07;32.33;;;20.48;;
42294;SDS011;27947;47.556;18.718;2024-03-02T10:07:32;33.58;;;20.50;;
42294;SDS011;27947;47.556;18.718;2024-03-02T10:09:58;29.17;;;18.48;;
42294;SDS011;27947;47.556;18.718;2024-03-02T10:12:24;29.25;;;19.67;;
42294;SDS011;27947;47.556;18.718;2024-03-02T10:14:49;33.05;;;18.40;;
42294;SDS011;27947;47.556;18.718;2024-03-02T10:17:27;30.25;;;19.02;;
42294;SDS011;27947;47.556;18.718;2024-03-02T10:19:55;31.40;;;19.80;;
42294;SDS011;27947;47.556;18.718;2024-03-02T10:22:22;30.45;;;20.13;;
42294;SDS011;27947;47.556;18.718;2024-03-02T10:24:48;30.95;;;20.27;;
42294;SDS011;27947;47.556;18.718;2024-03-02T10:27:22;30.45;;;19.17;;
42294;SDS011;27947;47.556;18.718;2024-03-02T10:29:47;35.67;;;22.08;;
42294;SDS011;27947;47.556;18.718;2024-03-02T10:32:13;32.33;;;20.75;;
42294;SDS011;27947;47.556;18.718;2024-03-02T10:34:41;30.95;;;20.45;;
42294;SDS011;27947;47.556;18.718;2024-03-02T10:37:07;32.92;;;20.13;;
42294;SDS011;27947;47.556;18.718;2024-03-02T10:39:34;34.67;;;19.23;;
42294;SDS011;27947;47.556;18.718;2024-03-02T10:42:00;30.48;;;18.70;;
42294;SDS011;27947;47.556;18.718;2024-03-02T10:44:28;32.63;;;20.40;;
42294;SDS011;27947;47.556;18.718;2024-03-02T10:46:53;29.98;;;19.30;;
42294;SDS011;27947;47.556;18.718;2024-03-02T10:49:19;31.50;;;18.25;;
42294;SDS011;27947;47.556;18.718;2024-03-02T10:51:45;30.85;;;20.15;;
42294;SDS011;27947;47.556;18.718;2024-03-02T10:54:11;30.52;;;19.55;;
42294;SDS011;27947;47.556;18.718;2024-03-02T10:56:40;32.95;;;20.55;;
42294;SDS011;27947;47.556;18.718;2024-03-02T11:01:33;29.02;;;19.63;;
42294;SDS011;27947;47.556;18.718;2024-03-02T11:03:59;29.85;;;19.23;;
42294;SDS011;27947;47.556;18.718;2024-03-02T11:06:25;31.48;;;19.17;;
42294;SDS011;27947;47.556;18.718;2024-03-02T11:08:53;27.80;;;18.00;;
42294;SDS011;27947;47.556;18.718;2024-03-02T11:11:22;28.73;;;18.50;;
42294;SDS011;27947;47.556;18.718;2024-03-02T11:13:52;31.42;;;20.17;;
42294;SDS011;27947;47.556;18.718;2024-03-02T11:16:22;29.50;;;18.63;;
42294;SDS011;27947;47.556;18.718;2024-03-02T11:18:51;27.92;;;18.27;;
42294;SDS011;27947;47.556;18.718;2024-03-02T11:21:17;28.77;;;17.98;;
42294;SDS011;27947;47.556;18.718;2024-03-02T11:23:42;30.27;;;18.92;;
42294;SDS011;27947;47.556;18.718;2024-03-02T11:26:26;24.85;;;15.27;;
42294;SDS011;27947;47.556;18.718;2024-03-02T11:28:53;24.25;;;16.05;;
42294;SDS011;27947;47.556;18.718;2024-03-02T11:31:19;27.27;;;17.70;;
42294;SDS011;27947;47.556;18.718;2024-03-02T11:33:44;27.88;;;18.50;;
42294;SDS011;27947;47.556;18.718;2024-03-02T11:36:09;28.63;;;18.13;;
42294;SDS011;27947;47.556;18.718;2024-03-02T11:38:35;24.98;;;17.33;;
42294;SDS011;27947;47.556;18.718;2024-03-02T11:41:07;24.45;;;16.88;;
42294;SDS011;27947;47.556;18.718;2024-03-02T11:43:36;23.85;;;15.88;;
42294;SDS011;27947;47.556;18.718;2024-03-02T11:46:03;24.20;;;15.63;;
42294;SDS011;27947;47.556;18.718;2024-03-02T11:48:32;25.42;;;16.95;;
42294;SDS011;27947;47.556;18.718;2024-03-02T11:50:57;23.60;;;15.98;;
42294;SDS011;27947;47.556;18.718;2024-03-02T11:53:23;30.13;;;20.02;;
42294;SDS011;27947;47.556;18.718;2024-03-02T11:55:48;33.95;;;22.20;;
42294;SDS011;27947;47.556;18.718;2024-03-02T11:58:16;24.73;;;17.05;;
42294;SDS011;27947;47.556;18.718;2024-03-02T12:00:46;30.40;;;19.60;;
42294;SDS011;27947;47.556;18.718;2024-03-02T12:03:12;24.13;;;16.17;;
42294;SDS011;27947;47.556;18.718;2024-03-02T12:05:37;23.88;;;15.13;;
42294;SDS011;27947;47.556;18.718;2024-03-02T12:08:03;21.70;;;14.18;;
42294;SDS011;27947;47.556;18.718;2024-03-02T12:10:29;19.50;;;13.50;;
42294;SDS011;27947;47.556;18.718;2024-03-02T12:13:01;22.10;;;13.65;;
42294;SDS011;27947;47.556;18.718;2024-03-02T12:15:27;20.17;;;13.07;;
42294;SDS011;27947;47.556;18.718;2024-03-02T12:17:54;21.50;;;14.82;;
42294;SDS011;27947;47.556;18.718;2024-03-02T12:20:24;19.00;;;13.18;;
42294;SDS011;27947;47.556;18.718;2024-03-02T12:22:51;16.80;;;12.45;;
42294;SDS011;27947;47.556;18.718;2024-03-02T12:25:17;16.45;;;12.02;;
42294;SDS011;27947;47.556;18.718;2024-03-02T12:27:43;18.30;;;12.07;;
42294;SDS011;27947;47.556;18.718;2024-03-02T12:30:08;16.95;;;12.82;;
42294;SDS011;27947;47.556;18.718;2024-03-02T12:32:36;17.02;;;12.40;;
42294;SDS011;27947;47.556;18.718;2024-03-02T12:35:03;14.73;;;9.95;;
42294;SDS011;27947;47.556;18.718;2024-03-02T12:37:29;13.77;;;10.15;;
42294;SDS011;27947;47.556;18.718;2024-03-02T12:39:55;13.15;;;10.18;;
42294;SDS011;27947;47.556;18.718;2024-03-02T12:42:20;16.27;;;11.13;;
42294;SDS011;27947;47.556;18.718;2024-03-02T12:44:45;18.17;;;11.10;;
42294;SDS011;27947;47.556;18.718;2024-03-02T12:47:11;13.50;;;10.00;;
42294;SDS011;27947;47.556;18.718;2024-03-02T12:49:39;12.25;;;9.43;;
42294;SDS011;27947;47.556;18.718;2024-03-02T12:52:05;15.32;;;10.75;;
42294;SDS011;27947;47.556;18.718;2024-03-02T12:54:30;18.67;;;12.60;;
42294;SDS011;27947;47.556;18.718;2024-03-02T12:56:56;15.75;;;10.88;;
42294;SDS011;27947;47.556;18.718;2024-03-02T12:59:23;13.02;;;9.80;;
42294;SDS011;27947;47.556;18.718;2024-03-02T13:04:21;10.38;;;8.32;;
42294;SDS011;27947;47.556;18.718;2024-03-02T13:06:46;14.25;;;10.15;;
42294;SDS011;27947;47.556;18.718;2024-03-02T13:09:11;14.07;;;11.10;;
42294;SDS011;27947;47.556;18.718;2024-03-02T13:11:40;14.32;;;10.38;;
42294;SDS011;27947;47.556;18.718;2024-03-02T13:14:05;18.52;;;11.38;;
42294;SDS011;27947;47.556;18.718;2024-03-02T13:16:30;14.85;;;10.40;;
42294;SDS011;27947;47.556;18.718;2024-03-02T13:18:55;12.30;;;9.23;;
42294;SDS011;27947;47.556;18.718;2024-03-02T13:21:21;12.35;;;9.02;;
42294;SDS011;27947;47.556;18.718;2024-03-02T13:23:46;12.82;;;9.77;;
42294;SDS011;27947;47.556;18.718;2024-03-02T13:26:11;13.88;;;9.88;;
42294;SDS011;27947;47.556;18.718;2024-03-02T13:28:37;14.38;;;10.20;;
42294;SDS011;27947;47.556;18.718;2024-03-02T13:31:03;15.52;;;10.40;;
42294;SDS011;27947;47.556;18.718;2024-03-02T13:33:28;12.90;;;8.25;;
42294;SDS011;27947;47.556;18.718;2024-03-02T13:35:55;11.10;;;8.68;;
42294;SDS011;27947;47.556;18.718;2024-03-02T13:38:20;12.38;;;9.57;;
42294;SDS011;27947;47.556;18.718;2024-03-02T13:40:46;12.48;;;9.30;;
42294;SDS011;27947;47.556;18.718;2024-03-02T13:43:11;14.02;;;10.38;;
42294;SDS011;27947;47.556;18.718;2024-03-02T13:45:37;15.80;;;10.95;;
42294;SDS011;27947;47.556;18.718;2024-03-02T13:48:02;17.15;;;11.57;;
42294;SDS011;27947;47.556;18.718;2024-03-02T13:50:28;17.40;;;12.55;;
42294;SDS011;27947;47.556;18.718;2024-03-02T13:52:55;17.83;;;12.55;;
42294;SDS011;27947;47.556;18.718;2024-03-02T13:55:20;20.20;;;13.95;;
42294;SDS011;27947;47.556;18.718;2024-03-02T13:57:46;22.92;;;14.10;;
42294;SDS011;27947;47.556;18.718;2024-03-02T14:00:11;19.17;;;13.95;;
42294;SDS011;27947;47.556;18.718;2024-03-02T14:02:38;17.75;;;13.73;;
42294;SDS011;27947;47.556;18.718;2024-03-02T14:05:03;17.08;;;12.52;;
42294;SDS011;27947;47.556;18.718;2024-03-02T14:07:29;18.48;;;12.70;;
42294;SDS011;27947;47.556;18.718;2024-03-02T14:09:54;20.00;;;14.65;;
42294;SDS011;27947;47.556;18.718;2024-03-02T14:12:19;19.85;;;14.35;;
42294;SDS011;27947;47.556;18.718;2024-03-02T14:14:45;20.25;;;14.15;;